createdAt,value
2018-10-06T00:00:19.715Z,8.80
2018-10-06T00:02:48.874Z,8.40
2018-10-06T00:05:18.037Z,8.23
2018-10-06T00:07:47.049Z,8.00
2018-10-06T00:10:16.132Z,8.60
2018-10-06T00:12:45.226Z,8.73
2018-10-06T00:15:14.309Z,8.00
2018-10-06T00:17:43.552Z,8.30
2018-10-06T00:20:12.617Z,7.83
2018-10-06T00:22:41.752Z,8.30
2018-10-06T00:25:10.948Z,7.90
2018-10-06T00:27:40.091Z,8.17
2018-10-06T00:30:09.647Z,7.80
2018-10-06T00:32:38.739Z,7.90
2018-10-06T00:35:07.784Z,7.80
2018-10-06T00:37:36.859Z,8.00
2018-10-06T00:40:07.647Z,7.73
2018-10-06T00:42:36.771Z,7.40
2018-10-06T00:45:06.061Z,7.57
2018-10-06T00:47:35.064Z,7.57
2018-10-06T00:50:04.179Z,7.13
2018-10-06T00:52:42.046Z,7.50
2018-10-06T00:55:11.211Z,8.10
2018-10-06T00:57:40.451Z,7.20
2018-10-06T01:00:09.645Z,7.50
2018-10-06T01:02:39.318Z,8.00
2018-10-06T01:05:08.413Z,7.90
2018-10-06T01:07:38.459Z,7.43
2018-10-06T01:10:07.459Z,7.20
2018-10-06T01:12:36.530Z,7.47
2018-10-06T01:15:05.773Z,8.40
2018-10-06T01:17:34.846Z,7.37
2018-10-06T01:20:04.024Z,7.20
2018-10-06T01:22:33.081Z,7.30
2018-10-06T01:25:02.123Z,8.13
2018-10-06T01:27:31.264Z,9.20
2018-10-06T01:30:00.289Z,8.40
2018-10-06T01:32:29.354Z,8.83
2018-10-06T01:34:58.495Z,7.73
2018-10-06T01:37:27.640Z,8.50
2018-10-06T01:39:56.643Z,8.17
2018-10-06T01:42:25.627Z,8.73
2018-10-06T01:44:54.672Z,8.27
2018-10-06T01:47:23.763Z,8.57
2018-10-06T01:49:52.854Z,8.57
2018-10-06T01:52:21.847Z,9.10
2018-10-06T01:54:50.935Z,8.03
2018-10-06T01:57:19.985Z,8.63
2018-10-06T01:59:49.365Z,7.83
2018-10-06T02:02:18.471Z,8.23
2018-10-06T02:04:47.572Z,8.27
2018-10-06T02:07:16.623Z,7.97
2018-10-06T02:09:45.691Z,8.80
2018-10-06T02:12:14.695Z,8.30
2018-10-06T02:14:43.939Z,8.87
2018-10-06T02:17:13.095Z,7.90
2018-10-06T02:19:42.103Z,8.43
2018-10-06T02:22:11.112Z,8.03
2018-10-06T02:24:40.279Z,8.27
2018-10-06T02:27:09.392Z,8.00
2018-10-06T02:29:38.475Z,9.20
2018-10-06T02:32:07.486Z,8.37
2018-10-06T02:34:36.566Z,9.47
2018-10-06T02:37:05.762Z,7.97
2018-10-06T02:39:34.799Z,8.40
2018-10-06T02:42:03.888Z,7.53
2018-10-06T02:44:32.990Z,7.97
2018-10-06T02:47:02.057Z,8.40
2018-10-06T02:49:31.025Z,8.23
2018-10-06T02:52:00.321Z,7.53
2018-10-06T02:54:29.476Z,7.80
2018-10-06T02:56:58.598Z,8.80
2018-10-06T02:59:27.754Z,8.33
2018-10-06T03:01:56.937Z,8.70
2018-10-06T03:04:25.995Z,8.40
2018-10-06T03:06:55.116Z,8.70
2018-10-06T03:09:24.220Z,8.30
2018-10-06T03:11:53.291Z,9.10
2018-10-06T03:14:22.505Z,8.73
2018-10-06T03:16:51.906Z,10.03
2018-10-06T03:19:20.955Z,9.40
2018-10-06T03:21:49.982Z,9.40
2018-10-06T03:24:19.047Z,9.33
2018-10-06T03:26:48.100Z,8.40
2018-10-06T03:29:17.282Z,9.23
2018-10-06T03:31:46.329Z,8.77
2018-10-06T03:34:15.559Z,9.10
2018-10-06T03:36:44.567Z,9.73
2018-10-06T03:39:13.705Z,8.80
2018-10-06T03:41:42.900Z,8.90
2018-10-06T03:44:12.206Z,9.27
2018-10-06T03:46:41.257Z,8.53
2018-10-06T03:49:10.680Z,9.80
2018-10-06T03:51:39.763Z,9.30
2018-10-06T03:54:11.151Z,9.33
2018-10-06T03:56:41.798Z,10.73
2018-10-06T03:59:10.970Z,9.60
2018-10-06T04:01:40.237Z,9.60
2018-10-06T04:04:09.600Z,9.60
2018-10-06T04:06:38.575Z,9.73
2018-10-06T04:09:08.649Z,10.20
2018-10-06T04:11:37.961Z,9.40
2018-10-06T04:14:07.599Z,9.63
2018-10-06T04:16:36.620Z,9.50
2018-10-06T04:19:05.700Z,9.67
2018-10-06T04:21:47.196Z,9.40
2018-10-06T04:24:17.487Z,9.50
2018-10-06T04:26:46.472Z,9.37
2018-10-06T04:29:15.438Z,9.17
2018-10-06T04:31:44.631Z,9.63
2018-10-06T04:34:13.730Z,9.17
2018-10-06T04:36:42.947Z,9.37
2018-10-06T04:39:13.252Z,9.87
2018-10-06T04:41:42.394Z,9.30
2018-10-06T04:44:11.400Z,9.40
2018-10-06T04:46:40.901Z,10.00
2018-10-06T04:49:10.145Z,9.60
2018-10-06T04:51:39.242Z,9.00
2018-10-06T04:54:09.152Z,9.20
2018-10-06T04:56:38.396Z,9.83
2018-10-06T04:59:07.458Z,9.97
2018-10-06T05:01:36.506Z,9.20
2018-10-06T05:04:06.641Z,10.67
2018-10-06T05:06:35.819Z,9.70
2018-10-06T05:09:05.572Z,9.87
2018-10-06T05:11:34.698Z,10.23
2018-10-06T05:14:03.839Z,9.83
2018-10-06T05:16:32.926Z,10.63
2018-10-06T05:19:02.008Z,9.90
2018-10-06T05:21:30.950Z,9.30
2018-10-06T05:24:00.035Z,10.10
2018-10-06T05:26:29.234Z,10.37
2018-10-06T05:28:58.320Z,12.03
2018-10-06T05:31:27.470Z,11.20
2018-10-06T05:33:56.583Z,10.40
2018-10-06T05:36:25.609Z,10.10
2018-10-06T05:38:54.691Z,10.80
2018-10-06T05:41:23.739Z,9.40
2018-10-06T05:43:52.767Z,10.50
2018-10-06T05:46:22.694Z,10.23
2018-10-06T05:48:51.730Z,10.70
2018-10-06T05:51:20.827Z,11.23
2018-10-06T05:53:49.936Z,11.40
2018-10-06T05:56:18.997Z,10.60
2018-10-06T05:58:48.144Z,10.70
2018-10-06T06:01:17.378Z,11.03
2018-10-06T06:03:46.482Z,11.50
2018-10-06T06:06:15.558Z,11.90
2018-10-06T06:08:44.594Z,11.50
2018-10-06T06:11:14.028Z,10.07
2018-10-06T06:13:43.132Z,10.90
2018-10-06T06:16:12.194Z,10.97
2018-10-06T06:18:41.398Z,10.77
2018-10-06T06:21:10.474Z,11.40
2018-10-06T06:23:39.762Z,11.57
2018-10-06T06:26:09.032Z,11.53
2018-10-06T06:28:38.306Z,11.40
2018-10-06T06:31:07.424Z,11.10
2018-10-06T06:33:36.509Z,12.53
2018-10-06T06:36:05.564Z,12.40
2018-10-06T06:38:34.571Z,12.20
2018-10-06T06:41:03.582Z,11.97
2018-10-06T06:43:32.780Z,11.60
2018-10-06T06:46:01.837Z,11.10
2018-10-06T06:48:30.927Z,10.93
2018-10-06T06:51:00.067Z,10.30
2018-10-06T06:53:29.143Z,9.20
2018-10-06T06:55:58.414Z,8.53
2018-10-06T06:58:27.499Z,8.90
2018-10-06T07:00:56.588Z,9.30
2018-10-06T07:03:25.831Z,8.20
2018-10-06T07:05:54.949Z,9.47
2018-10-06T07:08:24.065Z,9.37
2018-10-06T07:10:53.125Z,8.40
2018-10-06T07:13:22.766Z,9.70
2018-10-06T07:15:51.841Z,9.30
2018-10-06T07:18:20.971Z,8.87
2018-10-06T07:20:50.166Z,8.50
2018-10-06T07:23:19.274Z,8.33
2018-10-06T07:25:48.361Z,8.20
2018-10-06T07:28:17.469Z,9.40
2018-10-06T07:30:46.468Z,8.67
2018-10-06T07:33:15.569Z,8.40
2018-10-06T07:35:44.587Z,9.07
2018-10-06T07:38:13.631Z,8.27
2018-10-06T07:40:42.819Z,9.73
2018-10-06T07:43:11.854Z,9.63
2018-10-06T07:45:40.952Z,8.90
2018-10-06T07:48:09.969Z,9.33
2018-10-06T07:50:39.251Z,8.20
2018-10-06T07:53:08.436Z,8.60
2018-10-06T07:55:37.454Z,8.90
2018-10-06T07:58:06.555Z,8.57
2018-10-06T08:00:35.687Z,9.33
2018-10-06T08:03:04.835Z,8.93
2018-10-06T08:05:33.851Z,9.03
2018-10-06T08:08:03.008Z,10.30
2018-10-06T08:10:32.130Z,10.13
2018-10-06T08:13:01.240Z,9.93
2018-10-06T08:15:30.435Z,9.13
2018-10-06T08:17:59.540Z,9.23
2018-10-06T08:20:28.658Z,9.80
2018-10-06T08:22:57.987Z,9.17
2018-10-06T08:25:27.070Z,9.00
2018-10-06T08:27:56.056Z,8.73
2018-10-06T08:30:25.398Z,9.83
2018-10-06T08:32:54.387Z,9.40
2018-10-06T08:35:23.483Z,9.27
2018-10-06T08:37:52.734Z,9.47
2018-10-06T08:40:21.754Z,9.67
2018-10-06T08:42:50.843Z,10.03
2018-10-06T08:45:19.884Z,9.83
2018-10-06T08:47:49.147Z,8.83
2018-10-06T08:50:18.316Z,8.60
2018-10-06T08:52:47.331Z,8.67
2018-10-06T08:55:16.479Z,9.10
2018-10-06T08:57:45.540Z,9.33
2018-10-06T09:00:14.639Z,10.87
2018-10-06T09:02:43.798Z,10.20
2018-10-06T09:05:12.836Z,9.37
2018-10-06T09:07:42.023Z,9.53
2018-10-06T09:10:12.403Z,9.53
2018-10-06T09:12:41.714Z,11.00
2018-10-06T09:15:10.890Z,10.00
2018-10-06T09:17:40.642Z,10.60
2018-10-06T09:20:09.734Z,9.50
2018-10-06T09:22:38.948Z,11.20
2018-10-06T09:25:08.018Z,11.07
2018-10-06T09:27:37.037Z,10.83
2018-10-06T09:30:06.188Z,11.43
2018-10-06T09:32:35.361Z,11.60
2018-10-06T09:35:04.435Z,11.00
2018-10-06T09:37:33.568Z,11.53
2018-10-06T09:40:02.762Z,10.00
2018-10-06T09:42:32.086Z,10.43
2018-10-06T09:45:01.231Z,10.40
2018-10-06T09:47:30.311Z,10.50
2018-10-06T09:49:59.413Z,10.00
2018-10-06T09:52:28.497Z,9.90
2018-10-06T09:54:57.756Z,9.07
2018-10-06T09:57:28.112Z,10.17
2018-10-06T09:59:57.252Z,10.30
2018-10-06T10:02:31.783Z,10.00
2018-10-06T10:05:05.994Z,10.10
2018-10-06T10:07:35.672Z,10.93
2018-10-06T10:10:05.595Z,11.30
2018-10-06T10:12:34.758Z,9.80
2018-10-06T10:15:03.962Z,11.30
2018-10-06T10:17:33.140Z,10.47
2018-10-06T10:20:02.063Z,10.83
2018-10-06T10:22:31.167Z,10.00
2018-10-06T10:25:00.213Z,10.40
2018-10-06T10:27:29.314Z,9.53
2018-10-06T10:29:58.544Z,10.00
2018-10-06T10:32:27.535Z,9.80
2018-10-06T10:34:56.703Z,10.57
2018-10-06T10:37:26.049Z,11.40
2018-10-06T10:39:55.042Z,11.20
2018-10-06T10:42:24.253Z,10.97
2018-10-06T10:44:53.406Z,9.93
2018-10-06T10:47:22.791Z,9.70
2018-10-06T10:49:52.236Z,9.27
2018-10-06T10:52:21.223Z,9.60
2018-10-06T10:54:50.283Z,10.57
2018-10-06T10:57:19.266Z,9.30
2018-10-06T10:59:48.367Z,10.13
2018-10-06T11:02:17.317Z,9.57
2018-10-06T11:04:46.349Z,10.57
2018-10-06T11:07:15.620Z,9.10
2018-10-06T11:09:44.720Z,10.57
2018-10-06T11:12:13.975Z,8.97
2018-10-06T11:14:43.251Z,9.70
2018-10-06T11:17:12.352Z,9.37
2018-10-06T11:19:41.454Z,10.50
2018-10-06T11:22:10.580Z,10.03
2018-10-06T11:24:39.535Z,10.80
2018-10-06T11:27:08.548Z,10.33
2018-10-06T11:29:37.644Z,10.20
2018-10-06T11:32:06.782Z,10.00
2018-10-06T11:34:36.582Z,10.20
2018-10-06T11:37:06.088Z,10.20
2018-10-06T11:39:35.372Z,10.23
2018-10-06T11:42:05.337Z,11.30
2018-10-06T11:44:37.099Z,11.60
2018-10-06T11:47:06.516Z,11.90
2018-10-06T11:49:35.577Z,12.47
2018-10-06T11:52:05.067Z,11.27
2018-10-06T11:54:34.091Z,12.60
2018-10-06T11:57:03.156Z,12.43
2018-10-06T11:59:32.183Z,12.90
2018-10-06T12:02:01.275Z,11.43
2018-10-06T12:04:30.495Z,12.00
2018-10-06T12:06:59.739Z,11.60
2018-10-06T12:09:29.039Z,11.03
2018-10-06T12:11:58.089Z,12.03
2018-10-06T12:14:27.331Z,10.70
2018-10-06T12:16:56.515Z,11.70
2018-10-06T12:19:25.720Z,11.03
2018-10-06T12:21:55.605Z,10.87
2018-10-06T12:24:24.827Z,10.97
2018-10-06T12:26:53.986Z,11.30
2018-10-06T12:29:23.474Z,11.70
2018-10-06T12:31:52.699Z,11.93
2018-10-06T12:34:21.871Z,11.23
2018-10-06T12:36:51.067Z,12.30
2018-10-06T12:39:20.283Z,11.17
2018-10-06T12:41:49.541Z,11.20
2018-10-06T12:44:18.656Z,10.97
2018-10-06T12:46:47.725Z,10.30
2018-10-06T12:49:16.800Z,10.47
2018-10-06T12:51:46.527Z,9.57
2018-10-06T12:54:15.615Z,9.93
2018-10-06T12:56:45.523Z,10.40
2018-10-06T12:59:14.540Z,11.80
2018-10-06T13:01:43.638Z,10.43
2018-10-06T13:04:12.658Z,10.47
2018-10-06T13:06:41.819Z,10.53
2018-10-06T13:09:11.921Z,9.73
2018-10-06T13:11:41.638Z,10.13
2018-10-06T13:14:10.836Z,10.10
2018-10-06T13:16:39.908Z,11.90
2018-10-06T13:19:09.017Z,10.57
2018-10-06T13:21:38.183Z,9.77
2018-10-06T13:24:07.317Z,9.47
2018-10-06T13:26:36.495Z,8.77
2018-10-06T13:29:05.684Z,9.47
2018-10-06T13:31:34.683Z,9.43
2018-10-06T13:34:03.776Z,8.90
2018-10-06T13:36:33.050Z,8.13
2018-10-06T13:39:02.234Z,9.77
2018-10-06T13:41:31.311Z,9.30
2018-10-06T13:44:00.336Z,8.80
2018-10-06T13:46:29.515Z,8.60
2018-10-06T13:48:58.556Z,8.43
2018-10-06T13:51:27.686Z,9.23
2018-10-06T13:53:57.440Z,10.50
2018-10-06T13:56:26.694Z,9.47
2018-10-06T13:58:55.689Z,8.63
2018-10-06T14:01:24.678Z,9.13
2018-10-06T14:03:53.803Z,8.80
2018-10-06T14:06:22.777Z,9.17
2018-10-06T14:08:51.886Z,9.40
2018-10-06T14:11:21.081Z,8.43
2018-10-06T14:13:50.355Z,8.77
2018-10-06T14:16:20.184Z,8.33
2018-10-06T14:18:49.312Z,8.13
2018-10-06T14:21:18.445Z,8.67
2018-10-06T14:23:47.747Z,7.90
2018-10-06T14:26:16.847Z,7.67
2018-10-06T14:28:46.033Z,8.90
2018-10-06T14:31:15.193Z,6.80
2018-10-06T14:33:44.330Z,8.33
2018-10-06T14:36:13.379Z,7.20
2018-10-06T14:38:42.536Z,7.83
2018-10-06T14:41:11.638Z,8.10
2018-10-06T14:43:40.723Z,7.80
2018-10-06T14:46:10.028Z,8.40
2018-10-06T14:48:39.965Z,7.60
2018-10-06T14:51:09.154Z,7.13
2018-10-06T14:53:38.448Z,5.93
2018-10-06T14:56:07.448Z,6.20
2018-10-06T14:58:36.561Z,6.40
2018-10-06T15:01:05.864Z,8.20
2018-10-06T15:03:34.941Z,7.43
2018-10-06T15:06:04.022Z,8.33
2018-10-06T15:08:33.165Z,8.13
2018-10-06T15:11:02.370Z,7.73
2018-10-06T15:13:31.470Z,7.83
2018-10-06T15:16:00.607Z,8.30
2018-10-06T15:18:29.715Z,8.90
2018-10-06T15:20:58.784Z,8.10
2018-10-06T15:23:27.918Z,7.60
2018-10-06T15:25:57.061Z,8.70
2018-10-06T15:28:26.318Z,7.93
2018-10-06T15:30:55.404Z,9.30
2018-10-06T15:33:24.609Z,8.27
2018-10-06T15:35:53.735Z,8.70
2018-10-06T15:38:23.718Z,9.13
2018-10-06T15:40:52.910Z,9.23
2018-10-06T15:43:22.225Z,7.80
2018-10-06T15:45:52.328Z,8.17
2018-10-06T15:48:22.361Z,7.73
2018-10-06T15:50:52.180Z,7.43
2018-10-06T15:53:21.188Z,6.80
2018-10-06T15:55:50.238Z,7.77
2018-10-06T15:58:19.326Z,7.70
2018-10-06T16:00:48.299Z,7.40
2018-10-06T16:03:17.400Z,7.83
2018-10-06T16:05:46.498Z,7.50
2018-10-06T16:08:16.212Z,7.90
2018-10-06T16:10:45.296Z,7.80
2018-10-06T16:13:14.555Z,8.33
2018-10-06T16:15:43.615Z,7.80
2018-10-06T16:18:12.667Z,8.80
2018-10-06T16:20:41.705Z,8.33
2018-10-06T16:23:10.810Z,8.70
2018-10-06T16:25:39.954Z,7.87
2018-10-06T16:28:09.084Z,8.73
2018-10-06T16:30:38.115Z,8.97
2018-10-06T16:33:07.212Z,10.10
2018-10-06T16:35:36.635Z,10.17
2018-10-06T16:38:05.838Z,9.70
2018-10-06T16:40:34.847Z,9.60
2018-10-06T16:43:03.979Z,10.87
2018-10-06T16:45:33.016Z,11.30
2018-10-06T16:48:02.145Z,10.37
2018-10-06T16:50:31.207Z,8.63
2018-10-06T16:53:00.283Z,9.23
2018-10-06T16:55:29.336Z,9.60
2018-10-06T16:57:58.475Z,10.10
2018-10-06T17:00:27.716Z,10.20
2018-10-06T17:02:56.578Z,9.80
2018-10-06T17:05:25.577Z,10.20
2018-10-06T17:07:54.654Z,10.20
2018-10-06T17:10:23.620Z,10.53
2018-10-06T17:12:52.753Z,10.80
2018-10-06T17:15:21.707Z,9.83
2018-10-06T17:17:50.825Z,9.17
2018-10-06T17:20:19.984Z,10.80
2018-10-06T17:22:49.139Z,10.70
2018-10-06T17:25:18.290Z,10.43
2018-10-06T17:27:47.244Z,11.03
2018-10-06T17:30:16.527Z,11.17
2018-10-06T17:32:45.749Z,10.80
2018-10-06T17:35:14.770Z,10.60
2018-10-06T17:37:43.744Z,9.43
2018-10-06T17:40:12.801Z,9.70
2018-10-06T17:42:41.796Z,9.40
2018-10-06T17:45:10.805Z,9.90
2018-10-06T17:47:39.972Z,10.10
2018-10-06T17:50:09.106Z,10.03
2018-10-06T17:52:38.016Z,10.10
2018-10-06T17:55:07.301Z,12.17
2018-10-06T17:57:36.429Z,13.90
2018-10-06T18:00:05.610Z,22.67
2018-10-06T18:02:34.732Z,19.27
2018-10-06T18:05:04.001Z,18.20
2018-10-06T18:07:33.084Z,16.13
2018-10-06T18:10:02.148Z,14.90
2018-10-06T18:12:31.337Z,13.30
2018-10-06T18:15:00.459Z,16.07
2018-10-06T18:17:29.508Z,14.60
2018-10-06T18:19:58.675Z,13.47
2018-10-06T18:22:27.628Z,14.63
2018-10-06T18:24:57.368Z,14.13
2018-10-06T18:27:26.481Z,12.27
2018-10-06T18:29:55.831Z,11.63
2018-10-06T18:32:24.937Z,11.60
2018-10-06T18:34:53.988Z,12.13
2018-10-06T18:37:23.077Z,11.67
2018-10-06T18:39:52.105Z,10.40
2018-10-06T18:42:21.473Z,11.70
2018-10-06T18:44:50.616Z,11.17
2018-10-06T18:47:19.675Z,11.67
2018-10-06T18:49:48.804Z,10.00
2018-10-06T18:52:17.973Z,9.60
2018-10-06T18:54:47.004Z,9.23
2018-10-06T18:57:16.135Z,10.30
2018-10-06T18:59:45.216Z,10.20
2018-10-06T19:02:14.347Z,9.97
2018-10-06T19:04:43.559Z,10.47
2018-10-06T19:07:12.674Z,11.10
2018-10-06T19:09:41.848Z,11.00
2018-10-06T19:12:10.845Z,11.70
2018-10-06T19:14:39.897Z,11.00
2018-10-06T19:17:08.925Z,10.33
2018-10-06T19:19:37.999Z,10.80
2018-10-06T19:22:07.288Z,11.00
2018-10-06T19:24:36.251Z,10.17
2018-10-06T19:27:05.347Z,11.77
2018-10-06T19:29:34.477Z,10.77
2018-10-06T19:32:03.614Z,10.30
2018-10-06T19:34:32.827Z,11.20
2018-10-06T19:37:01.851Z,10.37
2018-10-06T19:39:30.927Z,11.90
2018-10-06T19:41:59.937Z,11.00
2018-10-06T19:44:28.949Z,9.80
2018-10-06T19:46:57.948Z,10.13
2018-10-06T19:49:27.018Z,9.60
2018-10-06T19:51:56.129Z,10.27
2018-10-06T19:54:25.147Z,9.87
2018-10-06T19:56:54.391Z,9.90
2018-10-06T19:59:23.713Z,10.47
2018-10-06T20:01:52.755Z,10.83
2018-10-06T20:04:21.863Z,11.30
2018-10-06T20:06:50.887Z,11.07
2018-10-06T20:09:20.083Z,11.70
2018-10-06T20:11:49.203Z,10.93
2018-10-06T20:14:18.345Z,11.10
2018-10-06T20:16:47.436Z,10.93
2018-10-06T20:19:16.717Z,11.53
2018-10-06T20:21:45.685Z,10.30
2018-10-06T20:24:14.720Z,11.30
2018-10-06T20:26:43.807Z,11.93
2018-10-06T20:29:13.003Z,11.30
2018-10-06T20:31:42.048Z,11.17
2018-10-06T20:34:11.152Z,12.10
2018-10-06T20:36:41.019Z,11.27
2018-10-06T20:39:11.063Z,12.60
2018-10-06T20:41:40.221Z,13.17
2018-10-06T20:44:09.330Z,12.73
2018-10-06T20:46:39.371Z,13.73
2018-10-06T20:49:08.651Z,12.97
2018-10-06T20:51:37.646Z,12.67
2018-10-06T20:54:06.718Z,13.27
2018-10-06T20:56:35.766Z,12.97
2018-10-06T20:59:05.047Z,13.80
2018-10-06T21:01:34.069Z,12.00
2018-10-06T21:04:03.131Z,12.60
2018-10-06T21:06:32.170Z,10.83
2018-10-06T21:09:02.642Z,12.83
2018-10-06T21:11:31.751Z,9.77
2018-10-06T21:14:00.806Z,9.47
2018-10-06T21:16:29.939Z,10.40
2018-10-06T21:18:59.077Z,9.17
2018-10-06T21:21:28.212Z,10.30
2018-10-06T21:23:57.483Z,11.00
2018-10-06T21:26:26.643Z,11.67
2018-10-06T21:28:55.774Z,12.50
2018-10-06T21:31:24.863Z,12.37
2018-10-06T21:33:53.888Z,12.63
2018-10-06T21:36:23.013Z,11.20
2018-10-06T21:38:52.226Z,11.37
2018-10-06T21:41:21.316Z,11.13
2018-10-06T21:43:50.457Z,12.70
2018-10-06T21:46:19.504Z,10.57
2018-10-06T21:48:48.518Z,11.70
2018-10-06T21:51:17.982Z,12.20
2018-10-06T21:53:47.400Z,12.30
2018-10-06T21:56:16.765Z,11.60
2018-10-06T21:58:45.888Z,11.87
2018-10-06T22:01:15.341Z,11.97
2018-10-06T22:03:44.557Z,12.27
2018-10-06T22:06:14.358Z,12.30
2018-10-06T22:08:44.652Z,13.70
2018-10-06T22:11:13.728Z,13.50
2018-10-06T22:13:42.787Z,15.17
2018-10-06T22:16:11.963Z,14.40
2018-10-06T22:18:41.129Z,14.60
2018-10-06T22:21:14.184Z,14.73
2018-10-06T22:23:43.388Z,14.27
2018-10-06T22:26:12.723Z,14.80
2018-10-06T22:28:41.819Z,16.13
2018-10-06T22:31:10.968Z,14.70
2018-10-06T22:33:40.202Z,15.40
2018-10-06T22:36:09.630Z,15.50
2018-10-06T22:38:38.653Z,16.13
2018-10-06T22:41:07.793Z,16.70
2018-10-06T22:43:36.939Z,18.43
2018-10-06T22:46:06.124Z,19.23
2018-10-06T22:48:35.156Z,18.77
2018-10-06T22:51:04.190Z,18.23
2018-10-06T22:53:33.397Z,17.37
2018-10-06T22:56:02.538Z,19.40
2018-10-06T22:58:31.651Z,17.77
2018-10-06T23:01:00.743Z,17.90
2018-10-06T23:03:29.776Z,17.90
2018-10-06T23:05:58.898Z,18.90
2018-10-06T23:08:28.187Z,19.60
2018-10-06T23:10:57.247Z,19.20
2018-10-06T23:13:26.345Z,20.13
2018-10-06T23:15:55.560Z,20.07
2018-10-06T23:18:25.987Z,22.20
2018-10-06T23:20:55.055Z,22.60
2018-10-06T23:23:24.287Z,23.70
2018-10-06T23:25:53.320Z,23.23
2018-10-06T23:28:22.403Z,23.50
2018-10-06T23:30:53.895Z,24.97
2018-10-06T23:33:23.069Z,26.33
2018-10-06T23:35:52.174Z,25.93
2018-10-06T23:38:21.312Z,26.17
2018-10-06T23:40:50.629Z,26.70
2018-10-06T23:43:19.758Z,27.43
2018-10-06T23:45:48.947Z,26.20
2018-10-06T23:48:18.065Z,25.70
2018-10-06T23:50:47.264Z,28.50
2018-10-06T23:53:16.394Z,28.50
2018-10-06T23:55:45.494Z,28.00
2018-10-06T23:58:15.137Z,30.00
